createdAt,value
2023-05-05T00:00:25.222Z,85.17
2023-05-05T00:01:25.123Z,84.66
2023-05-05T00:02:25.119Z,85.28
2023-05-05T00:03:25.162Z,84.77
2023-05-05T00:04:25.074Z,84.97
2023-05-05T00:05:25.084Z,85.07
2023-05-05T00:06:25.051Z,84.97
2023-05-05T00:07:25.083Z,84.52
2023-05-05T00:08:25.089Z,85.07
2023-05-05T00:09:25.102Z,84.19
2023-05-05T00:10:25.042Z,85.52
2023-05-05T00:11:25.040Z,85.93
2023-05-05T00:12:25.008Z,86.58
2023-05-05T00:13:25.000Z,86.38
2023-05-05T00:14:25.078Z,87.10
2023-05-05T00:15:24.971Z,86.69
2023-05-05T00:16:25.034Z,86.99
2023-05-05T00:17:24.968Z,86.69
2023-05-05T00:18:24.924Z,87.41
2023-05-05T00:19:24.926Z,86.90
2023-05-05T00:20:24.855Z,87.10
2023-05-05T00:21:24.881Z,86.90
2023-05-05T00:22:24.866Z,86.90
2023-05-05T00:23:24.833Z,86.58
2023-05-05T00:24:24.974Z,86.69
2023-05-05T00:25:24.977Z,86.48
2023-05-05T00:26:24.837Z,86.28
2023-05-05T00:27:24.795Z,86.07
2023-05-05T00:28:24.836Z,85.36
2023-05-05T00:29:24.802Z,86.28
2023-05-05T00:30:24.969Z,85.25
2023-05-05T00:32:31.516Z,85.05
2023-05-05T00:33:32.673Z,86.22
2023-05-05T00:34:57.745Z,86.73
2023-05-05T00:35:32.670Z,86.42
2023-05-05T00:36:32.726Z,87.14
2023-05-05T00:37:32.740Z,87.79
2023-05-05T00:38:32.836Z,88.21
2023-05-05T00:39:32.730Z,87.59
2023-05-05T00:40:32.750Z,87.14
2023-05-05T00:41:32.724Z,87.08
2023-05-05T00:42:32.686Z,86.98
2023-05-05T00:43:32.660Z,87.79
2023-05-05T00:44:32.692Z,87.49
2023-05-05T00:45:32.714Z,87.28
2023-05-05T00:46:32.698Z,86.52
2023-05-05T00:47:32.762Z,86.77
2023-05-05T00:48:32.641Z,87.28
2023-05-05T00:49:32.723Z,87.18
2023-05-05T00:50:32.638Z,86.46
2023-05-05T00:51:32.637Z,86.57
2023-05-05T00:52:32.633Z,86.83
2023-05-05T00:53:32.630Z,86.63
2023-05-05T00:54:32.613Z,86.42
2023-05-05T00:55:33.592Z,86.22
2023-05-05T00:56:32.627Z,85.80
2023-05-05T00:57:32.518Z,86.63
2023-05-05T00:58:32.455Z,86.73
2023-05-05T00:59:32.503Z,86.63
2023-05-05T01:00:32.472Z,86.18
2023-05-05T01:01:32.832Z,86.22
2023-05-05T01:02:32.741Z,86.42
2023-05-05T01:03:32.558Z,86.83
2023-05-05T01:04:32.610Z,87.04
2023-05-05T01:05:32.621Z,86.93
2023-05-05T01:06:32.545Z,87.24
2023-05-05T01:07:32.566Z,86.83
2023-05-05T01:08:32.592Z,87.08
2023-05-05T01:09:32.567Z,87.49
2023-05-05T01:10:32.566Z,87.70
2023-05-05T01:11:32.561Z,87.49
2023-05-05T01:12:32.612Z,87.70
2023-05-05T01:13:32.523Z,87.90
2023-05-05T01:14:32.568Z,87.90
2023-05-05T01:15:32.487Z,87.90
2023-05-05T01:16:32.450Z,88.21
2023-05-05T01:17:32.471Z,88.10
2023-05-05T01:18:32.399Z,87.70
2023-05-05T01:19:32.608Z,88.31
2023-05-05T01:20:32.445Z,88.31
2023-05-05T01:21:32.435Z,88.45
2023-05-05T01:22:32.500Z,88.82
2023-05-05T01:23:32.393Z,88.96
2023-05-05T01:24:32.379Z,88.76
2023-05-05T01:25:32.285Z,88.96
2023-05-05T01:26:32.298Z,88.82
2023-05-05T01:27:32.360Z,88.66
2023-05-05T01:28:32.288Z,89.27
2023-05-05T01:29:32.288Z,89.83
2023-05-05T01:30:32.887Z,90.14
2023-05-05T01:31:32.349Z,89.58
2023-05-05T01:32:32.333Z,89.07
2023-05-05T01:33:32.391Z,89.11
2023-05-05T01:34:32.321Z,89.37
2023-05-05T01:35:32.407Z,89.27
2023-05-05T01:36:32.343Z,88.86
2023-05-05T01:37:32.308Z,88.76
2023-05-05T01:38:32.327Z,88.14
2023-05-05T01:39:32.390Z,87.94
2023-05-05T01:40:32.259Z,87.73
2023-05-05T01:41:32.294Z,89.01
2023-05-05T01:42:32.271Z,89.93
2023-05-05T01:43:32.273Z,90.48
2023-05-05T01:44:32.279Z,91.41
2023-05-05T01:45:32.355Z,91.97
2023-05-05T01:46:32.248Z,92.93
2023-05-05T01:47:32.154Z,92.69
2023-05-05T01:48:32.225Z,92.58
2023-05-05T01:49:32.149Z,91.93
2023-05-05T01:50:32.268Z,91.93
2023-05-05T01:51:32.158Z,90.80
2023-05-05T01:52:32.176Z,90.89
2023-05-05T01:53:32.133Z,90.80
2023-05-05T01:54:32.126Z,91.66
2023-05-05T01:55:32.123Z,91.97
2023-05-05T01:56:32.126Z,92.07
2023-05-05T01:57:32.235Z,91.97
2023-05-05T01:58:32.234Z,91.20
2023-05-05T01:59:32.181Z,91.00
2023-05-05T02:00:32.227Z,90.38
2023-05-05T02:01:32.151Z,89.97
2023-05-05T02:02:32.273Z,89.31
2023-05-05T02:03:32.231Z,89.31
2023-05-05T02:04:32.221Z,88.70
2023-05-05T02:05:32.097Z,88.90
2023-05-05T02:06:32.114Z,88.18
2023-05-05T02:07:32.090Z,88.18
2023-05-05T02:08:32.144Z,88.18
2023-05-05T02:09:32.075Z,88.14
2023-05-05T02:10:32.062Z,88.39
2023-05-05T02:11:31.994Z,88.70
2023-05-05T02:12:32.112Z,88.80
2023-05-05T02:13:31.997Z,88.29
2023-05-05T02:14:31.975Z,88.18
2023-05-05T02:15:31.960Z,88.29
2023-05-05T02:16:31.958Z,88.29
2023-05-05T02:17:31.981Z,88.39
2023-05-05T02:18:31.939Z,88.70
2023-05-05T02:19:31.999Z,88.49
2023-05-05T02:20:32.009Z,88.49
2023-05-05T02:21:31.929Z,88.59
2023-05-05T02:22:31.964Z,88.80
2023-05-05T02:23:31.922Z,88.70
2023-05-05T02:24:31.922Z,88.59
2023-05-05T02:25:32.019Z,88.39
2023-05-05T02:26:31.971Z,88.59
2023-05-05T02:27:32.056Z,88.80
2023-05-05T02:28:31.971Z,88.70
2023-05-05T02:29:31.954Z,89.01
2023-05-05T02:30:32.522Z,88.90
2023-05-05T02:31:32.055Z,88.90
2023-05-05T02:32:43.152Z,89.31
2023-05-05T02:33:31.813Z,89.01
2023-05-05T02:34:31.946Z,89.01
2023-05-05T02:35:31.977Z,88.86
2023-05-05T02:36:31.946Z,88.66
2023-05-05T02:37:31.865Z,88.66
2023-05-05T02:38:31.902Z,88.24
2023-05-05T02:39:31.892Z,88.45
2023-05-05T02:40:31.855Z,88.04
2023-05-05T02:41:31.908Z,88.04
2023-05-05T02:42:31.927Z,88.04
2023-05-05T02:43:31.851Z,88.14
2023-05-05T02:44:31.909Z,88.39
2023-05-05T02:45:31.825Z,88.24
2023-05-05T02:46:31.910Z,88.59
2023-05-05T02:47:31.903Z,88.39
2023-05-05T02:48:31.882Z,88.35
2023-05-05T02:49:31.843Z,88.29
2023-05-05T02:50:31.898Z,88.45
2023-05-05T02:51:31.868Z,88.39
2023-05-05T02:52:31.860Z,88.70
2023-05-05T02:53:31.701Z,88.76
2023-05-05T02:54:31.760Z,88.59
2023-05-05T02:55:31.764Z,88.70
2023-05-05T02:57:12.414Z,89.01
2023-05-05T02:57:32.797Z,89.01
2023-05-05T02:58:31.806Z,88.70
2023-05-05T02:59:31.946Z,88.70
2023-05-05T03:00:31.739Z,88.70
2023-05-05T03:01:31.736Z,88.70
2023-05-05T03:02:31.792Z,88.80
2023-05-05T03:03:31.786Z,89.01
2023-05-05T03:04:31.610Z,89.31
2023-05-05T03:05:31.731Z,89.36
2023-05-05T03:06:33.050Z,89.42
2023-05-05T03:07:31.781Z,89.11
2023-05-05T03:08:31.676Z,89.31
2023-05-05T03:09:31.733Z,89.01
2023-05-05T03:10:31.684Z,88.80
2023-05-05T03:11:31.586Z,89.36
2023-05-05T03:13:02.125Z,89.66
2023-05-05T03:13:32.598Z,89.46
2023-05-05T03:14:33.372Z,89.66
2023-05-05T03:15:32.706Z,89.76
2023-05-05T03:16:31.774Z,90.08
2023-05-05T03:17:31.634Z,89.87
2023-05-05T03:18:31.593Z,90.18
2023-05-05T03:19:31.552Z,90.89
2023-05-05T03:20:31.494Z,90.69
2023-05-05T03:21:31.507Z,90.69
2023-05-05T03:22:31.524Z,90.48
2023-05-05T03:23:31.504Z,90.18
2023-05-05T03:24:31.526Z,89.56
2023-05-05T03:25:31.486Z,89.76
2023-05-05T03:26:31.439Z,89.36
2023-05-05T03:27:31.486Z,90.08
2023-05-05T03:28:31.482Z,89.76
2023-05-05T03:29:31.495Z,89.87
2023-05-05T03:30:31.477Z,89.87
2023-05-05T03:31:31.568Z,89.66
2023-05-05T03:32:31.620Z,89.97
2023-05-05T03:33:31.535Z,90.18
2023-05-05T03:34:31.482Z,89.66
2023-05-05T03:35:31.743Z,89.25
2023-05-05T03:36:31.464Z,89.36
2023-05-05T03:37:31.502Z,89.15
2023-05-05T03:38:31.497Z,89.15
2023-05-05T03:39:31.484Z,89.04
2023-05-05T03:40:42.934Z,89.36
2023-05-05T03:41:33.413Z,90.12
2023-05-05T03:42:32.440Z,90.57
2023-05-05T03:43:31.436Z,91.19
2023-05-05T03:44:31.443Z,91.80
2023-05-05T03:45:31.469Z,90.78
2023-05-05T03:46:31.481Z,91.29
2023-05-05T03:47:31.456Z,91.70
2023-05-05T03:48:31.365Z,90.73
2023-05-05T03:49:31.479Z,91.04
2023-05-05T03:50:31.436Z,90.73
2023-05-05T03:51:31.404Z,90.53
2023-05-05T03:52:31.417Z,90.53
2023-05-05T03:53:31.385Z,90.42
2023-05-05T03:54:31.344Z,90.83
2023-05-05T03:55:31.349Z,90.73
2023-05-05T03:56:31.345Z,91.04
2023-05-05T03:57:31.294Z,90.94
2023-05-05T03:58:31.235Z,91.14
2023-05-05T03:59:31.357Z,90.83
2023-05-05T04:00:31.376Z,90.53
2023-05-05T04:01:31.355Z,90.48
2023-05-05T04:02:31.430Z,90.42
2023-05-05T04:03:31.572Z,90.69
2023-05-05T04:04:31.367Z,90.28
2023-05-05T04:05:31.233Z,90.08
2023-05-05T04:06:31.299Z,89.46
2023-05-05T04:07:31.227Z,89.15
2023-05-05T04:08:31.358Z,88.95
2023-05-05T04:09:31.229Z,89.04
2023-05-05T04:10:31.263Z,89.15
2023-05-05T04:11:31.116Z,89.15
2023-05-05T04:13:03.220Z,89.01
2023-05-05T04:13:31.283Z,89.21
2023-05-05T04:14:31.272Z,88.90
2023-05-05T04:15:31.229Z,88.95
2023-05-05T04:16:31.300Z,88.59
2023-05-05T04:17:31.236Z,88.80
2023-05-05T04:18:31.205Z,88.90
2023-05-05T04:19:31.206Z,88.70
2023-05-05T04:20:40.276Z,88.39
2023-05-05T04:21:31.115Z,88.49
2023-05-05T04:22:52.796Z,88.49
2023-05-05T04:23:31.059Z,89.15
2023-05-05T04:24:31.081Z,88.70
2023-05-05T04:25:31.080Z,88.80
2023-05-05T04:26:31.034Z,88.70
2023-05-05T04:27:31.070Z,89.01
2023-05-05T04:28:31.037Z,88.90
2023-05-05T04:29:31.028Z,88.80
2023-05-05T04:30:31.035Z,88.95
2023-05-05T04:31:31.029Z,88.90
2023-05-05T04:32:30.971Z,88.59
2023-05-05T04:33:30.982Z,88.90
2023-05-05T04:34:30.953Z,88.70
2023-05-05T04:35:31.011Z,88.56
2023-05-05T04:36:31.035Z,88.24
2023-05-05T04:37:31.003Z,87.94
2023-05-05T04:38:31.009Z,87.84
2023-05-05T04:39:30.961Z,88.45
2023-05-05T04:40:30.958Z,88.45
2023-05-05T04:41:31.208Z,88.24
2023-05-05T04:42:30.963Z,88.66
2023-05-05T04:43:30.967Z,88.35
2023-05-05T04:44:30.915Z,88.56
2023-05-05T04:45:30.916Z,88.45
2023-05-05T04:46:31.005Z,88.76
2023-05-05T04:47:30.882Z,88.76
2023-05-05T04:48:30.929Z,88.51
2023-05-05T04:49:30.947Z,88.21
2023-05-05T04:50:30.914Z,88.31
2023-05-05T04:51:30.877Z,88.21
2023-05-05T04:52:52.656Z,88.31
2023-05-05T04:53:31.844Z,88.21
2023-05-05T04:54:30.842Z,88.41
2023-05-05T04:55:30.840Z,88.00
2023-05-05T04:56:45.278Z,87.65
2023-05-05T04:57:31.859Z,87.20
2023-05-05T04:58:30.835Z,86.48
2023-05-05T04:59:30.776Z,85.50
2023-05-05T05:00:30.808Z,86.52
2023-05-05T05:01:30.800Z,86.42
2023-05-05T05:02:30.816Z,86.63
2023-05-05T05:03:30.877Z,86.52
2023-05-05T05:04:30.739Z,86.69
2023-05-05T05:05:30.776Z,86.38
2023-05-05T05:06:30.762Z,85.31
2023-05-05T05:07:30.694Z,85.63
2023-05-05T05:08:30.755Z,85.11
2023-05-05T05:09:30.735Z,85.01
2023-05-05T05:10:31.720Z,85.63
2023-05-05T05:11:30.660Z,85.01
2023-05-05T05:12:30.738Z,84.97
2023-05-05T05:13:35.622Z,84.77
2023-05-05T05:14:30.742Z,84.05
2023-05-05T05:15:30.681Z,83.95
2023-05-05T05:16:30.755Z,83.81
2023-05-05T05:17:30.705Z,84.83
2023-05-05T05:18:30.679Z,84.97
2023-05-05T05:19:30.753Z,84.97
2023-05-05T05:20:30.655Z,84.56
2023-05-05T05:21:30.591Z,85.11
2023-05-05T05:22:36.440Z,85.28
2023-05-05T05:23:30.596Z,85.01
2023-05-05T05:24:30.650Z,84.80
2023-05-05T05:25:30.684Z,85.11
2023-05-05T05:26:30.643Z,85.63
2023-05-05T05:27:30.727Z,86.44
2023-05-05T05:28:30.771Z,86.55
2023-05-05T05:29:30.696Z,86.65
2023-05-05T05:30:39.936Z,85.93
2023-05-05T05:31:30.781Z,85.58
2023-05-05T05:32:30.743Z,85.99
2023-05-05T05:33:30.676Z,85.63
2023-05-05T05:34:30.652Z,85.99
2023-05-05T05:35:30.729Z,86.30
2023-05-05T05:36:30.634Z,86.05
2023-05-05T05:37:30.601Z,86.10
2023-05-05T05:38:30.600Z,85.99
2023-05-05T05:39:30.611Z,86.46
2023-05-05T05:40:30.629Z,85.38
2023-05-05T05:41:30.951Z,86.51
2023-05-05T05:42:30.554Z,87.18
2023-05-05T05:43:30.650Z,86.77
2023-05-05T05:44:30.568Z,86.63
2023-05-05T05:45:30.524Z,85.97
2023-05-05T05:46:30.624Z,85.47
2023-05-05T05:47:30.737Z,84.85
2023-05-05T05:48:30.681Z,84.55
2023-05-05T05:49:30.680Z,84.55
2023-05-05T05:50:30.596Z,83.89
2023-05-05T05:51:30.525Z,83.48
2023-05-05T05:52:30.601Z,82.97
2023-05-05T05:53:30.516Z,83.93
2023-05-05T05:54:30.561Z,85.16
2023-05-05T05:55:30.533Z,84.71
2023-05-05T05:56:30.563Z,84.26
2023-05-05T05:57:30.488Z,83.18
2023-05-05T05:58:30.548Z,83.89
2023-05-05T05:59:30.499Z,84.85
2023-05-05T06:00:30.478Z,85.88
2023-05-05T06:01:30.423Z,85.12
2023-05-05T06:02:30.402Z,85.53
2023-05-05T06:03:30.558Z,83.85
2023-05-05T06:04:30.405Z,83.65
2023-05-05T06:05:30.318Z,83.14
2023-05-05T06:06:30.384Z,83.30
2023-05-05T06:07:30.402Z,83.30
2023-05-05T06:08:30.441Z,83.20
2023-05-05T06:09:30.507Z,82.96
2023-05-05T06:10:30.542Z,83.06
2023-05-05T06:11:30.276Z,82.86
2023-05-05T06:12:30.389Z,82.45
2023-05-05T06:13:30.474Z,81.90
2023-05-05T06:14:30.386Z,81.29
2023-05-05T06:15:30.307Z,81.09
2023-05-05T06:16:30.386Z,80.78
2023-05-05T06:17:30.321Z,81.09
2023-05-05T06:18:30.268Z,81.32
2023-05-05T06:19:30.324Z,82.00
2023-05-05T06:20:30.333Z,81.86
2023-05-05T06:21:30.305Z,81.15
2023-05-05T06:22:30.284Z,80.50
2023-05-05T06:23:30.295Z,80.40
2023-05-05T06:24:30.255Z,79.54
2023-05-05T06:25:30.211Z,78.73
2023-05-05T06:26:30.144Z,78.49
2023-05-05T06:27:30.279Z,77.98
2023-05-05T06:28:30.334Z,79.00
2023-05-05T06:29:30.187Z,77.17
2023-05-05T06:30:30.388Z,76.82
2023-05-05T06:31:30.274Z,76.11
2023-05-05T06:32:30.368Z,75.60
2023-05-05T06:33:30.232Z,76.31
2023-05-05T06:35:02.489Z,76.35
2023-05-05T06:35:30.121Z,77.17
2023-05-05T06:36:30.245Z,78.28
2023-05-05T06:37:30.199Z,77.78
2023-05-05T06:38:30.246Z,77.53
2023-05-05T06:39:30.241Z,77.87
2023-05-05T06:40:30.189Z,76.92
2023-05-05T06:41:30.405Z,77.87
2023-05-05T06:42:30.182Z,77.87
2023-05-05T06:43:30.177Z,78.08
2023-05-05T06:44:30.172Z,78.08
2023-05-05T06:45:30.175Z,78.28
2023-05-05T06:46:30.191Z,78.66
2023-05-05T06:47:30.211Z,78.28
2023-05-05T06:48:30.630Z,77.13
2023-05-05T06:49:30.998Z,77.94
2023-05-05T06:50:29.991Z,77.23
2023-05-05T06:51:30.049Z,77.94
2023-05-05T06:52:30.107Z,76.89
2023-05-05T06:53:30.028Z,77.20
2023-05-05T06:54:29.974Z,77.20
2023-05-05T06:55:30.003Z,76.45
2023-05-05T06:56:30.151Z,76.10
2023-05-05T06:57:30.005Z,75.60
2023-05-05T06:58:30.041Z,74.68
2023-05-05T06:59:29.962Z,74.14
2023-05-05T07:00:30.006Z,74.34
2023-05-05T07:01:30.075Z,74.65
2023-05-05T07:02:31.053Z,74.21
2023-05-05T07:03:30.052Z,74.07
2023-05-05T07:04:30.045Z,72.85
2023-05-05T07:05:30.016Z,72.34
2023-05-05T07:06:29.988Z,71.91
2023-05-05T07:07:30.012Z,72.04
2023-05-05T07:08:30.008Z,72.11
2023-05-05T07:09:30.042Z,71.91
2023-05-05T07:10:30.019Z,71.88
2023-05-05T07:11:29.864Z,71.16
2023-05-05T07:12:30.191Z,71.47
2023-05-05T07:13:29.920Z,70.42
2023-05-05T07:14:30.120Z,72.14
2023-05-05T07:15:30.012Z,71.44
2023-05-05T07:16:30.110Z,72.68
2023-05-05T07:17:29.980Z,73.09
2023-05-05T07:18:30.002Z,72.17
2023-05-05T07:19:30.223Z,73.70
2023-05-05T07:20:29.938Z,74.00
2023-05-05T07:21:30.921Z,73.09
2023-05-05T07:22:29.902Z,73.05
2023-05-05T07:23:29.860Z,72.72
2023-05-05T07:24:29.772Z,72.38
2023-05-05T07:25:29.804Z,71.23
2023-05-05T07:26:29.767Z,70.59
2023-05-05T07:27:29.825Z,70.15
2023-05-05T07:28:29.804Z,69.95
2023-05-05T07:29:29.834Z,69.82
2023-05-05T07:30:29.930Z,69.08
2023-05-05T07:31:29.885Z,69.92
2023-05-05T07:32:29.838Z,69.28
2023-05-05T07:33:29.897Z,69.38
2023-05-05T07:34:29.835Z,68.57
2023-05-05T07:35:29.958Z,67.93
2023-05-05T07:36:29.804Z,67.02
2023-05-05T07:37:29.888Z,67.93
2023-05-05T07:38:29.840Z,67.43
2023-05-05T07:39:29.880Z,68.44
2023-05-05T07:40:29.751Z,68.24
2023-05-05T07:41:29.840Z,68.41
2023-05-05T07:42:29.738Z,67.53
2023-05-05T07:43:29.723Z,67.33
2023-05-05T07:44:29.679Z,66.99
2023-05-05T07:45:29.768Z,67.10
2023-05-05T07:46:29.912Z,67.60
2023-05-05T07:47:29.617Z,67.50
2023-05-05T07:48:29.580Z,67.90
2023-05-05T07:49:29.559Z,67.90
2023-05-05T07:50:29.593Z,67.47
2023-05-05T07:51:29.602Z,67.47
2023-05-05T07:52:44.321Z,66.96
2023-05-05T07:53:31.561Z,66.49
2023-05-05T07:54:29.691Z,67.10
2023-05-05T07:55:29.590Z,67.83
2023-05-05T07:56:29.763Z,67.63
2023-05-05T07:57:29.697Z,68.17
2023-05-05T07:58:29.752Z,71.64
2023-05-05T07:59:29.602Z,72.44
2023-05-05T08:00:29.780Z,72.48
2023-05-05T08:01:29.613Z,71.77
2023-05-05T08:02:29.810Z,72.34
2023-05-05T08:03:29.754Z,72.24
2023-05-05T08:04:29.630Z,72.34
2023-05-05T08:05:29.467Z,72.31
2023-05-05T08:06:29.467Z,72.48
2023-05-05T08:07:29.494Z,72.11
2023-05-05T08:08:29.634Z,73.62
2023-05-05T08:09:29.439Z,72.11
2023-05-05T08:10:29.424Z,72.98
2023-05-05T08:11:29.672Z,71.91
2023-05-05T08:12:30.457Z,72.27
2023-05-05T08:13:29.499Z,72.27
2023-05-05T08:14:29.506Z,71.47
2023-05-05T08:15:29.517Z,70.56
2023-05-05T08:16:29.729Z,71.03
2023-05-05T08:17:29.605Z,70.76
2023-05-05T08:18:29.534Z,70.76
2023-05-05T08:19:29.730Z,70.22
2023-05-05T08:20:29.469Z,70.19
2023-05-05T08:21:29.537Z,69.59
2023-05-05T08:22:29.497Z,68.04
2023-05-05T08:23:29.552Z,67.40
2023-05-05T08:24:29.534Z,66.60
2023-05-05T08:25:29.553Z,66.87
2023-05-05T08:26:29.432Z,65.76
2023-05-05T08:27:29.532Z,67.07
2023-05-05T08:28:29.434Z,67.07
2023-05-05T08:29:29.447Z,67.27
2023-05-05T08:30:29.400Z,66.23
2023-05-05T08:31:29.435Z,66.83
2023-05-05T08:32:29.922Z,66.50
2023-05-05T08:33:30.398Z,65.70
2023-05-05T08:34:29.404Z,64.99
2023-05-05T08:35:29.345Z,64.36
2023-05-05T08:36:29.249Z,64.56
2023-05-05T08:37:29.256Z,64.26
2023-05-05T08:38:29.250Z,65.13
2023-05-05T08:39:29.208Z,65.03
2023-05-05T08:40:29.266Z,63.22
2023-05-05T08:41:29.209Z,63.29
2023-05-05T08:42:38.089Z,63.90
2023-05-05T08:43:42.262Z,63.87
2023-05-05T08:44:29.232Z,64.27
2023-05-05T08:45:29.164Z,63.23
2023-05-05T08:46:29.458Z,61.72
2023-05-05T08:47:29.243Z,59.89
2023-05-05T08:48:29.408Z,59.19
2023-05-05T08:49:29.266Z,59.59
2023-05-05T08:50:29.339Z,58.79
2023-05-05T08:51:29.492Z,59.39
2023-05-05T08:52:29.275Z,60.06
2023-05-05T08:53:29.214Z,59.56
2023-05-05T08:54:29.212Z,60.16
2023-05-05T08:55:29.213Z,58.73
2023-05-05T08:56:29.214Z,59.53
2023-05-05T08:57:29.302Z,60.31
2023-05-05T08:58:29.216Z,59.38
2023-05-05T08:59:30.202Z,59.48
2023-05-05T09:00:29.221Z,58.28
2023-05-05T09:01:29.279Z,57.55
2023-05-05T09:02:29.266Z,57.37
2023-05-05T09:03:29.081Z,57.37
2023-05-05T09:04:29.056Z,58.98
2023-05-05T09:05:29.212Z,59.08
2023-05-05T09:06:29.130Z,59.08
2023-05-05T09:07:29.250Z,59.38
2023-05-05T09:08:29.286Z,59.78
2023-05-05T09:09:29.178Z,57.85
2023-05-05T09:10:29.082Z,55.85
2023-05-05T09:11:29.131Z,56.05
2023-05-05T09:12:28.979Z,56.15
2023-05-05T09:13:29.137Z,56.65
2023-05-05T09:14:29.076Z,57.12
2023-05-05T09:15:29.052Z,56.72
2023-05-05T09:16:29.144Z,55.49
2023-05-05T09:17:29.076Z,54.39
2023-05-05T09:18:29.077Z,52.92
2023-05-05T09:19:29.034Z,51.74
2023-05-05T09:20:29.166Z,52.77
2023-05-05T09:21:29.024Z,53.37
2023-05-05T09:22:29.034Z,54.90
2023-05-05T09:23:29.009Z,54.50
2023-05-05T09:24:29.195Z,55.40
2023-05-05T09:25:28.971Z,55.80
2023-05-05T09:26:29.058Z,55.57
2023-05-05T09:27:28.972Z,55.15
2023-05-05T09:28:29.110Z,54.24
2023-05-05T09:29:28.970Z,54.62
2023-05-05T09:30:29.122Z,54.60
2023-05-05T09:31:28.897Z,53.09
2023-05-05T09:32:30.587Z,52.72
2023-05-05T09:33:29.861Z,53.02
2023-05-05T09:34:28.828Z,53.42
2023-05-05T09:35:28.915Z,52.39
2023-05-05T09:36:28.972Z,52.59
2023-05-05T09:37:28.890Z,53.09
2023-05-05T09:38:28.937Z,54.69
2023-05-05T09:39:28.910Z,52.47
2023-05-05T09:40:28.886Z,54.04
2023-05-05T09:41:28.964Z,53.02
2023-05-05T09:42:28.897Z,51.59
2023-05-05T09:43:28.866Z,51.79
2023-05-05T09:44:28.899Z,52.39
2023-05-05T09:45:28.959Z,52.67
2023-05-05T09:46:28.959Z,51.65
2023-05-05T09:47:30.157Z,51.65
2023-05-05T09:48:29.868Z,51.82
2023-05-05T09:49:28.883Z,52.42
2023-05-05T09:50:29.925Z,51.22
2023-05-05T09:51:28.909Z,50.73
2023-05-05T09:52:29.155Z,50.50
2023-05-05T09:53:29.078Z,50.08
2023-05-05T09:54:28.830Z,49.98
2023-05-05T09:55:28.805Z,50.27
2023-05-05T09:56:28.818Z,50.08
2023-05-05T09:57:28.715Z,50.38
2023-05-05T09:58:28.739Z,49.76
2023-05-05T09:59:28.660Z,50.18
2023-05-05T10:00:28.656Z,50.98
2023-05-05T10:01:28.664Z,49.78
2023-05-05T10:03:01.748Z,50.27
2023-05-05T10:04:00.569Z,49.18
2023-05-05T10:04:28.850Z,47.37
2023-05-05T10:06:00.653Z,48.68
2023-05-05T10:06:28.622Z,48.68
2023-05-05T10:07:28.697Z,48.61
2023-05-05T10:08:28.819Z,48.50
2023-05-05T10:09:28.700Z,50.32
2023-05-05T10:10:29.099Z,50.50
2023-05-05T10:11:29.707Z,49.51
2023-05-05T10:12:28.749Z,49.70
2023-05-05T10:13:28.739Z,50.08
2023-05-05T10:14:28.723Z,49.18
2023-05-05T10:15:28.681Z,50.48
2023-05-05T10:16:29.796Z,50.98
2023-05-05T10:17:28.748Z,49.90
2023-05-05T10:18:28.772Z,51.00
2023-05-05T10:19:28.702Z,49.78
2023-05-05T10:20:28.649Z,49.18
2023-05-05T10:21:28.635Z,49.01
2023-05-05T10:22:28.589Z,49.40
2023-05-05T10:23:28.605Z,50.00
2023-05-05T10:24:28.711Z,50.50
2023-05-05T10:25:28.548Z,50.02
2023-05-05T10:26:28.472Z,50.23
2023-05-05T10:27:28.521Z,51.42
2023-05-05T10:28:28.477Z,51.20
2023-05-05T10:29:28.378Z,51.40
2023-05-05T10:30:28.478Z,51.27
2023-05-05T10:31:28.452Z,51.65
2023-05-05T10:32:51.974Z,50.45
2023-05-05T10:33:31.947Z,51.45
2023-05-05T10:34:29.574Z,50.43
2023-05-05T10:35:28.507Z,50.15
2023-05-05T10:36:28.533Z,50.35
2023-05-05T10:37:28.589Z,51.27
2023-05-05T10:38:28.483Z,52.14
2023-05-05T10:39:28.503Z,51.05
2023-05-05T10:40:28.618Z,50.82
2023-05-05T10:41:28.514Z,49.98
2023-05-05T10:42:28.482Z,49.98
2023-05-05T10:43:28.447Z,51.37
2023-05-05T10:44:28.438Z,49.76
2023-05-05T10:45:28.476Z,50.05
2023-05-05T10:46:28.815Z,51.22
2023-05-05T10:47:28.653Z,50.10
2023-05-05T10:48:28.461Z,51.00
2023-05-05T10:49:28.670Z,49.31
2023-05-05T10:50:28.381Z,50.10
2023-05-05T10:51:39.239Z,50.31
2023-05-05T10:52:30.845Z,49.88
2023-05-05T10:53:28.335Z,48.49
2023-05-05T10:54:28.357Z,48.81
2023-05-05T10:55:28.334Z,51.10
2023-05-05T10:56:28.460Z,51.10
2023-05-05T10:57:28.321Z,51.30
2023-05-05T10:58:28.508Z,50.90
2023-05-05T10:59:28.407Z,49.98
2023-05-05T11:00:28.467Z,49.19
2023-05-05T11:01:28.420Z,49.68
2023-05-05T11:02:28.501Z,49.88
2023-05-05T11:03:28.520Z,48.57
2023-05-05T11:04:28.400Z,50.35
2023-05-05T11:05:28.313Z,50.43
2023-05-05T11:06:28.330Z,49.93
2023-05-05T11:07:28.328Z,48.77
2023-05-05T11:08:28.249Z,50.28
2023-05-05T11:09:28.547Z,50.28
2023-05-05T11:10:28.271Z,51.07
2023-05-05T11:11:28.244Z,50.68
2023-05-05T11:12:28.314Z,49.96
2023-05-05T11:13:28.563Z,49.86
2023-05-05T11:14:28.559Z,49.93
2023-05-05T11:15:28.314Z,49.93
2023-05-05T11:16:28.226Z,49.93
2023-05-05T11:17:28.300Z,49.11
2023-05-05T11:18:28.699Z,49.61
2023-05-05T11:19:28.327Z,48.62
2023-05-05T11:20:28.646Z,48.40
2023-05-05T11:21:28.347Z,48.99
2023-05-05T11:22:28.217Z,48.80
2023-05-05T11:23:28.372Z,48.80
2023-05-05T11:24:28.125Z,48.60
2023-05-05T11:25:28.195Z,50.01
2023-05-05T11:26:28.221Z,48.82
2023-05-05T11:27:28.103Z,49.91
2023-05-05T11:28:28.136Z,50.01
2023-05-05T11:29:28.178Z,49.93
2023-05-05T11:30:28.163Z,48.84
2023-05-05T11:31:28.799Z,49.86
2023-05-05T11:32:28.278Z,49.84
2023-05-05T11:33:28.489Z,50.35
2023-05-05T11:34:28.233Z,51.05
2023-05-05T11:35:28.205Z,48.89
2023-05-05T11:36:28.175Z,48.99
2023-05-05T11:37:28.065Z,49.91
2023-05-05T11:38:28.131Z,51.00
2023-05-05T11:39:28.042Z,50.80
2023-05-05T11:40:27.961Z,51.12
2023-05-05T11:41:28.067Z,50.95
2023-05-05T11:42:28.216Z,52.34
2023-05-05T11:43:27.954Z,55.05
2023-05-05T11:44:27.966Z,53.59
2023-05-05T11:45:27.856Z,54.98
2023-05-05T11:46:28.140Z,53.41
2023-05-05T11:47:28.008Z,54.01
2023-05-05T11:48:27.973Z,54.34
2023-05-05T11:49:28.060Z,55.33
2023-05-05T11:50:27.970Z,56.83
2023-05-05T11:51:27.930Z,59.52
2023-05-05T11:52:28.055Z,61.55
2023-05-05T11:53:27.920Z,63.04
2023-05-05T11:54:27.932Z,64.17
2023-05-05T11:55:27.858Z,66.30
2023-05-05T11:56:27.942Z,67.06
2023-05-05T11:57:27.986Z,66.89
2023-05-05T11:58:28.489Z,69.16
2023-05-05T11:59:27.949Z,69.39
2023-05-05T12:00:27.945Z,72.27
2023-05-05T12:01:27.999Z,73.74
2023-05-05T12:02:28.009Z,74.34
2023-05-05T12:03:28.571Z,76.08
2023-05-05T12:04:28.001Z,77.12
2023-05-05T12:05:27.912Z,78.27
2023-05-05T12:06:28.052Z,78.90
2023-05-05T12:07:27.712Z,78.64
2023-05-05T12:08:27.740Z,80.08
2023-05-05T12:09:27.789Z,80.99
2023-05-05T12:10:27.724Z,79.68
2023-05-05T12:11:27.974Z,81.19
2023-05-05T12:12:27.728Z,82.26
2023-05-05T12:13:27.703Z,82.90
2023-05-05T12:14:27.714Z,82.50
2023-05-05T12:15:27.729Z,82.44
2023-05-05T12:16:27.922Z,82.60
2023-05-05T12:17:27.820Z,82.64
2023-05-05T12:18:27.870Z,84.89
2023-05-05T12:19:27.805Z,86.24
2023-05-05T12:20:27.714Z,85.88
2023-05-05T12:21:27.933Z,85.68
2023-05-05T12:22:27.961Z,86.93
2023-05-05T12:23:27.884Z,89.09
2023-05-05T12:24:27.997Z,87.68
2023-05-05T12:25:27.721Z,87.18
2023-05-05T12:26:28.199Z,89.39
2023-05-05T12:27:28.798Z,90.91
2023-05-05T12:28:28.004Z,92.32
2023-05-05T12:29:28.173Z,92.62
2023-05-05T12:30:27.875Z,91.80
2023-05-05T12:31:27.972Z,93.32
2023-05-05T12:32:27.796Z,92.35
2023-05-05T12:33:27.610Z,91.28
2023-05-05T12:34:27.810Z,93.24
2023-05-05T12:35:28.051Z,93.51
2023-05-05T12:36:29.857Z,92.69
2023-05-05T12:37:27.684Z,92.09
2023-05-05T12:38:28.110Z,92.19
2023-05-05T12:39:27.634Z,92.19
2023-05-05T12:40:27.796Z,94.21
2023-05-05T12:41:27.644Z,93.20
2023-05-05T12:42:27.668Z,93.56
2023-05-05T12:43:27.709Z,94.27
2023-05-05T12:44:27.902Z,94.63
2023-05-05T12:45:27.643Z,94.63
2023-05-05T12:46:27.682Z,92.77
2023-05-05T12:47:28.229Z,92.52
2023-05-05T12:48:27.571Z,92.98
2023-05-05T12:49:27.435Z,92.78
2023-05-05T12:50:27.425Z,91.53
2023-05-05T12:51:27.465Z,90.82
2023-05-05T12:52:27.402Z,89.01
2023-05-05T12:53:27.393Z,89.11